الصفحة الرئيسية
METAR-TAF:

METAR-TAF

مطار :

هواهين, تايلاند

دائرة عرض: 12-35N, خط طول: 099-57E, ارتفاع: 5 متر

مراقبة الطقس الحالي

تاريخ ووقت الإصدار 6ساعات و 13 دقيقة قبل الساعة 11:00UTC
ريح 9 عقدة من الجنوب/الجنوب الشرقي
درجة الحرارة 30°درجة مئوية
الرطوبة 75%
ضغط 1010 hPa
الرؤية: 9000 متر
غيوم قليلة على ارتفاع 2800 قدم
غيوم متفرقة على ارتفاع 10000 قدم

METAR: VTPH 211100Z 15009KT 9000 FEW028 SCT100 30/25 Q1010 NOSIG

زمن: 00:13 (17:13 UTC)

توقعات

تاريخ ووقت الإصدار 6ساعات و 13 دقيقة قبل الساعة 11:00UTC
التوقعات صالحة من21 الساعة 12 UTC إلى 22 الساعة 12 UTC
ريح 5 عقدة من الجنوب/الجنوب الشرقي
الرؤية 10 كم أو أكثر
غيوم قليلة على ارتفاع 2000 قدم
غيوم مفككة على ارتفاع 10000 قدم
مؤقت
من 22 الساعة 02 UTC إلى 22 الساعة 12 UTC
ريح 15 عقدةمن اتجاهات متغيرة تتزايد حتى 25 عقدة
الرؤية: 4000 متر
غيوم قليلة على ارتفاع 1600 قدم, مزنة ركامية.
غيوم متفرقة على ارتفاع 1800 قدم
غيوم مفككة على ارتفاع 10000 قدم
عاصفة رعدية, مطر

TAF: VTPH 211100Z 2112/2212 16005KT 9999 FEW020 BKN100 TEMPO 2202/2212 VRB15G25KT 4000 TSRA FEW016CB SCT018 BKN100

أرصاد الطقس والتوقعات من أكثر من 4000 مطار (تقارير الطقس للمطار METAR والتنبؤ بالطقس بالمطارTAF).

المحطات المتاحة هي النقط الصفراء والحمراء على الخريطة.

حرك المؤشر فوق النقطة لمعرفة اسم المحطة.

ثم انقر لمعرفة أرصاد وتوقعات الطقس.

لتغيير الخارطة: اضغط على الأزرار الخضراء مع رمز الصليب الأسود للتكبير. على الزر الأخضر مع شرطة للتصغير، أو على الأسهم الخضراء للخرائط المجاورة.


METAR-TAF: